Mattapoisett, MA (02739)

10:21 PM EDT on September 02, 2014 (GMT -0400)
Marion Inner Harbor | Change Station
CLOSE
Current Station
Personal Weather Station
Location: Marion, MA
Elevation: 18 ft
Nearby Weather Stations

Elev 18 ft 41.70 °N, 70.76 °W | Updated 3 minutes ago

Clear
Clear
73.3 °F
Feels Like 71 °F
N
5.0
Wind Variable Wind from SSW
Gusts 8.0 mph

Today
High -- | Low -- °F
--% Chance of Precip.
Yesterday
High -- | Low -- °F
Precip. -- in
6:10 AM 7:14 PM
First Quarter, 57% visible
Pressure 29.79 in
Visibility 10.0 miles
Clouds Clear
Heat Index 71 °F
Dew Point 70 °F
Humidity 90%
Rainfall 0.00 in
Snow Depth Not available.
UV 0 out of 12
Pollen 6.70 out of 12
Ozone Good
PM2.5 Moderate
Flu Activity Not available.
METAR KEWB 030153Z AUTO 22007KT 10SM CLR 23/22 A2979 RMK AO2 SLP087 LAST AUGMENTED OBS T02330217

More Conditions Fewer Conditions

Pressure 29.79 in
Visibility 10.0 miles
Clouds Clear
Heat Index 71 °F
Dew Point 70 °F
Humidity 90%
Rainfall 0.00 in
Snow Depth Not available.
UV 0 out of 12
Pollen 6.70 out of 12
Ozone Good
PM2.5 Moderate
Flu Activity Not available.
METAR KEWB 030153Z AUTO 22007KT 10SM CLR 23/22 A2979 RMK AO2 SLP087 LAST AUGMENTED OBS T02330217

More Conditions Fewer Conditions

10-Day Weather Forecast

Almanac

Astronomy

Sep. 02, 2014 Rise Set
Actual Time 6:10 AM EDT 7:14 PM EDT
Civil Twilight 5:41 AM EDT 7:43 PM EDT
Nautical Twilight 5:07 AM EDT 8:17 PM EDT
Astronomical Twilight 4:32 AM EDT 8:52 PM EDT
Moon 1:57 PM EDT (9/2) 11:59 PM EDT (9/2)
Length of Visible Light 14h 01m
Length of Day
13h 04m
Tomorrow will be 2m 41s shorter.
First Quarter, 57% of the Moon is Illuminated
Today
First Quarter
Sep 8
Full
Sep 15
Last Quarter
Sep 24
New
Oct 1
First Quarter

Today's Extremes

State Highs State Lows

Community

WunderPhotos

Upload Photos

1,749,841 photos uploaded!

Nearby

Air Quality

  Air Quality AQ Index Pollutant
Yesterday Moderate
PM2.5
Yesterday Good
OZONE
Current Moderate
PM2.5
Current Good
OZONE
Tuesday Good
PM2.5
Tuesday Good
OZONE
Wednesday Good
PM2.5
Wednesday Good
OZONE

Snow Depth

Station Depth Elevation
No new snow has been reported.

Earthquake Activity

City Distance Mag. Time & Date
No recent earthquake activity has been reported nearby.
Minimum magnitude displayed is 2.5.

Coastal Water Temperatures

Place Temperature
Woods Hole, MA 72.0 °F
Fall River, MA 75.9 °F
Newport, RI 71.1 °F

Nearby Weather Stations